Pouch Cove, Canada
Current Conditions -  °F | °C
As of 11:00 PM on Wednesday 26 Nov 2014 (Local Time) from CYYT Reporting Station
Broken Clouds Broken Clouds  
Wind Chill: 39°   Ceiling: 15000
Heat Index: 39°   Visibility: 15mi
Dew Point: 36°   Wind: 3mph
Humidity: 87%   Direction: 300°WNW
Pressure: 30.14"   Gusts: NA
Location:  47.76°N, 52.76°W
Report Text: CYYT 270200Z 30003KT 250V330 15SM SCT040 BKN150 BKN220 04/02 A3014 RMK SC4AC1CI1 PRESFR SLP212
Loading
Personal Weather Stations






























Interactive Weather Map New forecast layout! Learn more

10-Day Weather Forecast

Advertisements
Track Severe Weather on mobile